Terminal Aerodrome Forecast
Issued by NWS

Home | Current Version | Previous Version | Text Only | Print | Product List | Glossary On
Versions: 1 2 3 4 5 6 7 8 9 10 11 12 13 14
000
FTUS42 TJSJ 280540
TAFISX
TAF
TISX 280540Z 2806/2906 00000KT P6SM SCT017
     FM281300 15010KT P6SM FEW030 FEW050
     FM281630 18010KT P6SM VCTS SCT030CB BKN050
     FM282300 VRB05KT P6SM FEW025=

USA.gov is the U.S. government's official web portal to all federal, state and local government web resources and services.